createdAt,value
2018-03-11T06:30:33.632Z,95.70
2018-03-11T06:33:05.504Z,95.80
2018-03-11T06:35:37.392Z,95.80
2018-03-11T06:38:16.008Z,95.80
2018-03-11T06:40:47.899Z,95.90
2018-03-11T06:43:20.532Z,96.00
2018-03-11T06:45:52.664Z,95.90
2018-03-11T06:48:24.539Z,96.00
2018-03-11T06:50:56.427Z,95.90
2018-03-11T06:53:28.305Z,95.90
2018-03-11T06:56:00.228Z,95.90
2018-03-11T06:58:32.372Z,95.90
2018-03-11T07:01:04.259Z,95.80
2018-03-11T07:03:36.396Z,95.80
2018-03-11T07:06:08.564Z,95.70
2018-03-11T07:08:40.450Z,95.60
2018-03-11T07:11:12.332Z,95.50
2018-03-11T07:13:44.203Z,95.30
2018-03-11T07:16:16.136Z,95.10
2018-03-11T07:18:48.736Z,95.00
2018-03-11T07:21:20.633Z,95.00
2018-03-11T07:23:52.532Z,95.00
2018-03-11T07:26:24.668Z,95.00
2018-03-11T07:28:56.604Z,95.00
2018-03-11T07:31:28.624Z,95.00
2018-03-11T07:34:00.507Z,94.90
2018-03-11T07:36:32.395Z,94.90
2018-03-11T07:39:05.031Z,94.80
2018-03-11T07:41:36.923Z,94.70
2018-03-11T07:44:08.799Z,94.70
2018-03-11T07:46:41.451Z,94.50
2018-03-11T07:49:13.361Z,94.40
2018-03-11T07:51:45.524Z,94.40
2018-03-11T07:54:17.404Z,94.40
2018-03-11T07:56:49.296Z,94.10
2018-03-11T07:59:21.166Z,94.10
2018-03-11T08:01:53.056Z,94.30
2018-03-11T08:04:24.932Z,94.10
2018-03-11T08:06:56.815Z,94.40
2018-03-11T08:09:28.696Z,94.40
2018-03-11T08:12:00.584Z,94.60
2018-03-11T08:14:33.226Z,94.60
2018-03-11T08:17:05.111Z,94.60
2018-03-11T08:19:36.984Z,94.60
2018-03-11T08:22:09.637Z,94.60
2018-03-11T08:24:41.515Z,94.60
2018-03-11T08:27:14.170Z,94.40
2018-03-11T08:29:46.036Z,94.40
2018-03-11T08:32:17.923Z,94.20
2018-03-11T08:34:50.569Z,94.10
2018-03-11T08:37:22.457Z,94.10
2018-03-11T08:39:55.095Z,93.70
2018-03-11T08:42:26.979Z,93.80
2018-03-11T08:44:58.862Z,93.60
2018-03-11T08:47:31.514Z,93.50
2018-03-11T08:50:03.383Z,93.50
2018-03-11T08:52:35.273Z,93.30
2018-03-11T08:55:07.438Z,93.20
2018-03-11T08:57:39.320Z,93.10
2018-03-11T09:00:11.196Z,93.10
2018-03-11T09:02:43.079Z,93.10
2018-03-11T09:05:14.947Z,92.80
2018-03-11T09:07:46.836Z,92.40
2018-03-11T09:10:18.707Z,92.70
2018-03-11T09:12:50.615Z,92.10
2018-03-11T09:15:22.496Z,91.50
2018-03-11T09:17:54.384Z,91.60
2018-03-11T09:20:26.256Z,91.30
2018-03-11T09:22:58.145Z,91.10
2018-03-11T09:25:30.263Z,90.90
2018-03-11T09:28:02.152Z,90.80
2018-03-11T09:30:35.826Z,90.80
2018-03-11T09:33:07.991Z,90.70
2018-03-11T09:35:39.864Z,90.30
2018-03-11T09:38:11.743Z,90.50
2018-03-11T09:40:43.626Z,90.30
2018-03-11T09:43:15.716Z,90.10
2018-03-11T09:45:48.351Z,89.80
2018-03-11T09:48:20.231Z,89.80
2018-03-11T09:50:52.103Z,89.10
2018-03-11T09:53:23.992Z,89.00
2018-03-11T09:55:56.159Z,88.60
2018-03-11T09:58:28.811Z,88.40
2018-03-11T10:01:00.680Z,88.40
2018-03-11T10:03:33.376Z,86.80
2018-03-11T10:06:06.008Z,85.60
2018-03-11T10:08:37.960Z,85.60
2018-03-11T10:11:09.876Z,85.70
2018-03-11T10:13:42.520Z,85.70
2018-03-11T10:16:14.416Z,85.70
2018-03-11T10:18:47.048Z,86.50
2018-03-11T10:21:18.921Z,85.80
2018-03-11T10:23:50.814Z,85.50
2018-03-11T10:26:23.493Z,84.70
2018-03-11T10:28:56.134Z,85.00
2018-03-11T10:31:28.012Z,85.00
2018-03-11T10:34:00.689Z,85.10
2018-03-11T10:36:32.568Z,85.10
2018-03-11T10:39:04.736Z,85.00
2018-03-11T10:41:36.611Z,85.80
2018-03-11T10:44:08.487Z,86.60
2018-03-11T10:46:40.359Z,86.50
2018-03-11T10:49:12.292Z,86.40
2018-03-11T10:51:44.887Z,86.60
2018-03-11T10:54:16.767Z,85.60
2018-03-11T10:56:48.639Z,85.30
2018-03-11T10:59:20.519Z,84.50
2018-03-11T11:01:53.160Z,83.80
2018-03-11T11:04:25.047Z,83.70
2018-03-11T11:06:56.915Z,83.40
2018-03-11T11:09:29.571Z,83.10
2018-03-11T11:12:01.445Z,83.10
2018-03-11T11:14:33.319Z,82.80
2018-03-11T11:17:05.962Z,82.20
2018-03-11T11:19:37.846Z,82.20
2018-03-11T11:22:10.484Z,81.70
2018-03-11T11:24:42.368Z,81.60
2018-03-11T11:27:14.240Z,81.60
2018-03-11T11:29:46.123Z,81.60
2018-03-11T11:32:17.991Z,81.90
2018-03-11T11:34:49.880Z,81.30
2018-03-11T11:37:21.751Z,81.10
2018-03-11T11:39:53.868Z,80.80
2018-03-11T11:42:25.739Z,81.10
2018-03-11T11:44:57.619Z,80.80
2018-03-11T11:47:29.496Z,80.60
2018-03-11T11:50:01.399Z,81.00
2018-03-11T11:52:34.048Z,81.00
2018-03-11T11:55:06.972Z,81.00
2018-03-11T11:57:38.840Z,80.60
2018-03-11T12:00:10.996Z,80.60
2018-03-11T12:02:42.903Z,80.50
2018-03-11T12:05:15.024Z,80.00
2018-03-11T12:07:46.923Z,80.50
2018-03-11T12:10:18.799Z,80.30
2018-03-11T12:12:50.748Z,79.90
2018-03-11T12:15:22.713Z,80.30
2018-03-11T12:17:54.616Z,80.20
2018-03-11T12:20:27.511Z,79.30
2018-03-11T12:22:59.430Z,79.20
2018-03-11T12:25:31.538Z,79.20
2018-03-11T12:28:03.423Z,79.10
2018-03-11T12:30:35.300Z,79.00
2018-03-11T12:33:07.189Z,78.50
2018-03-11T12:35:39.064Z,78.40
2018-03-11T12:38:11.960Z,78.40
2018-03-11T12:40:43.827Z,78.30
2018-03-11T12:43:15.725Z,77.80
2018-03-11T12:45:47.687Z,78.00
2018-03-11T12:48:19.600Z,76.70
2018-03-11T12:50:52.239Z,77.40
2018-03-11T12:53:24.193Z,77.40
2018-03-11T12:55:56.148Z,77.00
2018-03-11T12:58:28.053Z,77.00
2018-03-11T13:01:00.692Z,76.30
2018-03-11T13:03:32.647Z,76.20
2018-03-11T13:06:04.518Z,77.10
2018-03-11T13:08:36.467Z,76.60
2018-03-11T13:11:08.695Z,76.50
2018-03-11T13:13:40.604Z,76.30
2018-03-11T13:16:12.484Z,75.80
2018-03-11T13:18:44.375Z,75.10
2018-03-11T13:21:16.255Z,75.10
2018-03-11T13:23:48.160Z,76.10
2018-03-11T13:26:20.032Z,75.10
2018-03-11T13:28:51.932Z,74.30
2018-03-11T13:31:23.811Z,74.00
2018-03-11T13:34:07.797Z,74.70
2018-03-11T13:36:39.663Z,74.60
2018-03-11T13:39:24.175Z,74.00
2018-03-11T13:41:56.047Z,74.00
2018-03-11T13:44:27.934Z,74.00
2018-03-11T13:47:01.416Z,74.30
2018-03-11T13:49:33.320Z,74.30
2018-03-11T13:52:17.143Z,73.90
2018-03-11T13:54:49.791Z,73.30
2018-03-11T14:00:20.671Z,72.80
2018-03-11T14:02:53.299Z,73.30
2018-03-11T14:05:25.180Z,73.20
2018-03-11T14:07:57.288Z,72.80
2018-03-11T14:10:29.184Z,72.80
2018-03-11T14:13:01.055Z,72.00
2018-03-11T14:15:32.965Z,72.30
2018-03-11T14:18:05.604Z,72.00
2018-03-11T14:20:37.487Z,72.00
2018-03-11T14:23:10.120Z,72.50
2018-03-11T14:25:42.251Z,72.50
2018-03-11T14:28:14.120Z,71.80
2018-03-11T14:30:46.275Z,72.30
2018-03-11T14:33:18.444Z,72.20
2018-03-11T14:35:50.348Z,71.90
2018-03-11T14:38:22.224Z,71.40
2018-03-11T14:40:54.125Z,71.60
2018-03-11T14:43:26.001Z,71.80
2018-03-11T14:45:57.895Z,72.00
2018-03-11T14:48:29.764Z,71.90
2018-03-11T14:51:01.672Z,72.00
2018-03-11T14:53:33.832Z,72.20
2018-03-11T14:56:05.999Z,71.80
2018-03-11T14:58:37.877Z,72.20
2018-03-11T15:01:09.760Z,72.40
2018-03-11T15:03:41.627Z,72.50
2018-03-11T15:06:13.532Z,71.90
2018-03-11T15:08:46.167Z,72.20
2018-03-11T15:11:18.073Z,72.10
2018-03-11T15:13:50.707Z,73.00
2018-03-11T15:16:22.615Z,73.00
2018-03-11T15:18:55.244Z,73.00
2018-03-11T15:21:27.127Z,73.00
2018-03-11T15:23:58.995Z,73.20
2018-03-11T15:26:31.897Z,73.60
2018-03-11T15:29:03.768Z,73.40
2018-03-11T15:31:35.655Z,73.30
2018-03-11T15:34:07.520Z,73.20
2018-03-11T15:36:39.403Z,73.80
2018-03-11T15:39:11.508Z,74.30
2018-03-11T15:41:43.383Z,74.30
2018-03-11T15:44:15.252Z,74.40
2018-03-11T15:46:47.140Z,74.50
2018-03-11T15:49:19.010Z,74.60
2018-03-11T15:51:50.890Z,74.90
2018-03-11T15:54:23.785Z,75.40
2018-03-11T15:56:55.672Z,75.40
2018-03-11T15:59:27.544Z,75.30
2018-03-11T16:01:59.427Z,75.50
2018-03-11T16:04:31.296Z,75.70
2018-03-11T16:07:03.180Z,76.10
2018-03-11T16:09:35.831Z,76.40
2018-03-11T16:12:07.711Z,76.40
2018-03-11T16:14:40.348Z,76.90
2018-03-11T16:17:12.229Z,76.80
2018-03-11T16:19:44.095Z,76.70
2018-03-11T16:22:15.984Z,76.90
2018-03-11T16:24:48.148Z,77.80
2018-03-11T16:27:20.031Z,77.70
2018-03-11T16:29:51.912Z,77.90
2018-03-11T16:32:23.792Z,78.10
2018-03-11T16:34:55.659Z,78.40
2018-03-11T16:37:27.548Z,78.60
2018-03-11T16:39:59.449Z,79.00
2018-03-11T16:42:31.320Z,78.80
2018-03-11T16:45:03.204Z,79.30
2018-03-11T16:47:35.850Z,80.10
2018-03-11T16:50:07.723Z,79.80
2018-03-11T16:52:39.607Z,80.20
2018-03-11T16:55:12.244Z,81.10
2018-03-11T16:57:44.887Z,81.50
2018-03-11T17:00:16.756Z,81.30
2018-03-11T17:02:48.641Z,81.50
2018-03-11T17:05:20.512Z,82.00
2018-03-11T17:07:52.404Z,82.30
2018-03-11T17:10:25.032Z,82.70
2018-03-11T17:12:56.916Z,82.70
2018-03-11T17:15:28.797Z,83.10
2018-03-11T17:18:01.449Z,84.20
2018-03-11T17:20:33.332Z,83.60
2018-03-11T17:23:05.221Z,84.00
2018-03-11T17:25:37.095Z,84.00
2018-03-11T17:28:08.984Z,84.20
2018-03-11T17:30:40.851Z,84.70
2018-03-11T17:33:12.742Z,84.70
2018-03-11T17:35:45.382Z,84.80
2018-03-11T17:38:17.481Z,84.80
2018-03-11T17:40:50.144Z,85.50
2018-03-11T17:43:22.030Z,85.40
2018-03-11T17:45:54.668Z,85.60
2018-03-11T17:48:27.129Z,85.60
2018-03-11T17:50:58.990Z,85.70
2018-03-11T17:53:30.878Z,85.70
2018-03-11T17:56:02.748Z,86.00
2018-03-11T17:58:34.937Z,86.20
2018-03-11T18:01:06.807Z,86.60
2018-03-11T18:03:38.692Z,86.50
2018-03-11T18:06:10.568Z,86.80
2018-03-11T18:08:42.499Z,86.80
2018-03-11T18:11:14.352Z,86.70
2018-03-11T18:13:46.244Z,86.90
2018-03-11T18:16:18.121Z,87.00
2018-03-11T18:18:50.004Z,87.10
2018-03-11T18:21:22.639Z,87.30
2018-03-11T18:23:54.524Z,87.30
2018-03-11T18:26:26.399Z,87.40
2018-03-11T18:28:59.043Z,87.30
2018-03-11T18:31:31.976Z,87.20
2018-03-11T18:34:03.864Z,87.20
2018-03-11T18:36:35.771Z,87.50
2018-03-11T18:39:07.713Z,87.80
2018-03-11T18:41:39.673Z,87.40
2018-03-11T18:44:11.556Z,87.50
2018-03-11T18:46:43.427Z,87.80
2018-03-11T18:49:16.079Z,87.70
2018-03-11T18:51:47.948Z,87.60
2018-03-11T18:54:19.836Z,87.80
2018-03-11T18:56:52.480Z,87.70
2018-03-11T18:59:24.360Z,87.70
2018-03-11T19:01:57.009Z,87.80
2018-03-11T19:04:28.887Z,87.80
2018-03-11T19:07:01.084Z,87.80
2018-03-11T19:09:33.024Z,88.10
2018-03-11T19:12:04.904Z,88.10
2018-03-11T19:14:37.556Z,88.20
2018-03-11T19:17:09.492Z,88.20
2018-03-11T19:19:41.380Z,88.70
2018-03-11T19:22:13.247Z,88.30
2018-03-11T19:24:45.898Z,88.70
2018-03-11T19:27:17.764Z,88.60
2018-03-11T19:29:49.972Z,88.40
2018-03-11T19:32:21.888Z,88.50
2018-03-11T19:34:53.836Z,88.70
2018-03-11T19:37:25.710Z,89.00
2018-03-11T19:39:57.599Z,89.10
2018-03-11T19:42:29.472Z,89.10
2018-03-11T19:45:02.120Z,89.50
2018-03-11T19:47:34.014Z,89.50
2018-03-11T19:50:05.896Z,89.80
2018-03-11T19:52:37.784Z,89.90
2018-03-11T19:55:09.667Z,90.00
2018-03-11T19:57:41.552Z,90.10
2018-03-11T20:00:14.252Z,90.10
2018-03-11T20:02:46.396Z,90.10
2018-03-11T20:05:18.292Z,90.20
2018-03-11T20:07:50.159Z,90.30
2018-03-11T20:10:22.069Z,90.40
2018-03-11T20:12:54.700Z,90.40
2018-03-11T20:15:26.583Z,90.40
2018-03-11T20:17:58.451Z,90.50
2018-03-11T20:20:30.335Z,90.50
2018-03-11T20:23:02.968Z,91.10
2018-03-11T20:25:35.184Z,90.80
2018-03-11T20:28:07.067Z,90.80
2018-03-11T20:30:39.003Z,90.80
2018-03-11T20:33:11.644Z,90.70
2018-03-11T20:35:43.529Z,90.70
2018-03-11T20:38:16.164Z,91.00
2018-03-11T20:40:48.048Z,91.00
2018-03-11T20:43:20.692Z,91.10
2018-03-11T20:45:52.580Z,91.00
2018-03-11T20:48:24.687Z,91.10
